Keslers Cross Lanes, West Virginia
Current Conditions -  °F | °C
As of 7:51 AM on Friday 28 Nov 2014 (Local Time) from KBKW Reporting Station
Overcast Overcast  
Wind Chill: 13°   Ceiling: 1200
Heat Index: 22°   Visibility: 7mi
Dew Point: 17°   Wind: 7mph
Humidity: 82%   Direction: 340°NNW
Pressure: 30.26"   Gusts: NA
Location:  38.24°N, 80.94°W
Report Text: KBKW 281251Z AUTO 34006KT 7SM OVC012 M06/M08 A3026 RMK AO2 SLP290 T10561083
Loading
Personal Weather Stations






























Interactive Weather Map New forecast layout! Learn more

10-Day Weather Forecast

Advertisements
Track Severe Weather on mobile